createdAt,value
2023-03-05T00:01:18.293Z,49.53
2023-03-05T00:03:45.494Z,53.40
2023-03-05T00:06:12.116Z,55.65
2023-03-05T00:08:38.773Z,46.75
2023-03-05T00:11:08.875Z,50.13
2023-03-05T00:13:35.899Z,41.92
2023-03-05T00:16:04.660Z,39.40
2023-03-05T00:18:31.320Z,47.50
2023-03-05T00:20:57.913Z,40.70
2023-03-05T00:23:24.464Z,39.22
2023-03-05T00:25:51.325Z,47.35
2023-03-05T00:28:17.924Z,44.40
2023-03-05T00:30:44.587Z,45.25
2023-03-05T00:33:12.523Z,50.25
2023-03-05T00:35:44.088Z,47.28
2023-03-05T00:38:11.231Z,50.72
2023-03-05T00:40:39.493Z,49.58
2023-03-05T00:43:07.181Z,45.67
2023-03-05T00:45:34.078Z,44.50
2023-03-05T00:48:00.897Z,45.17
2023-03-05T00:50:28.090Z,44.67
2023-03-05T00:52:55.010Z,49.13
2023-03-05T00:55:22.175Z,64.57
2023-03-05T00:57:48.649Z,49.33
2023-03-05T01:00:16.136Z,44.35
2023-03-05T01:02:42.652Z,51.35
2023-03-05T01:05:12.546Z,40.35
2023-03-05T01:07:39.166Z,43.28
2023-03-05T01:10:06.730Z,41.42
2023-03-05T01:12:33.221Z,45.67
2023-03-05T01:14:59.716Z,45.22
2023-03-05T01:17:26.146Z,52.63
2023-03-05T01:19:52.670Z,53.30
2023-03-05T01:22:19.191Z,55.78
2023-03-05T01:24:45.633Z,49.85
2023-03-05T01:27:12.405Z,49.78
2023-03-05T01:29:38.874Z,55.50
2023-03-05T01:32:05.616Z,53.38
2023-03-05T01:34:32.548Z,53.20
2023-03-05T01:36:58.945Z,48.08
2023-03-05T01:39:25.363Z,55.38
2023-03-05T01:41:51.768Z,56.58
2023-03-05T01:44:23.006Z,56.10
2023-03-05T01:46:49.960Z,47.78
2023-03-05T01:49:38.738Z,47.10
2023-03-05T01:52:13.934Z,50.45
2023-03-05T01:54:47.939Z,43.83
2023-03-05T01:57:18.010Z,41.05
2023-03-05T01:59:48.522Z,47.22
2023-03-05T02:02:15.140Z,42.33
2023-03-05T02:04:54.763Z,39.60
2023-03-05T02:07:22.388Z,38.72
2023-03-05T02:09:49.763Z,43.28
2023-03-05T02:12:16.963Z,48.25
2023-03-05T02:14:46.547Z,45.20
2023-03-05T02:17:13.773Z,43.00
2023-03-05T02:20:02.511Z,47.40
2023-03-05T02:22:28.946Z,40.92
2023-03-05T02:24:55.409Z,38.13
2023-03-05T02:27:34.626Z,45.63
2023-03-05T02:30:02.002Z,44.20
2023-03-05T02:32:28.483Z,45.22
2023-03-05T02:34:54.955Z,45.63
2023-03-05T02:37:21.369Z,50.80
2023-03-05T02:39:47.808Z,49.30
2023-03-05T02:42:14.245Z,41.92
2023-03-05T02:44:40.724Z,47.08
2023-03-05T02:47:07.356Z,46.58
2023-03-05T02:49:33.795Z,43.70
2023-03-05T02:52:00.289Z,43.00
2023-03-05T02:54:26.782Z,50.67
2023-03-05T02:56:53.262Z,52.38
2023-03-05T02:59:19.687Z,42.65
2023-03-05T03:01:46.120Z,43.15
2023-03-05T03:04:12.552Z,52.08
2023-03-05T03:06:39.006Z,44.63
2023-03-05T03:09:05.488Z,50.35
2023-03-05T03:11:31.960Z,47.10
2023-03-05T03:13:59.841Z,45.42
2023-03-05T03:16:26.320Z,48.22
2023-03-05T03:18:52.775Z,46.20
2023-03-05T03:21:22.579Z,53.00
2023-03-05T03:23:49.063Z,53.10
2023-03-05T03:26:15.561Z,55.78
2023-03-05T03:28:42.062Z,61.72
2023-03-05T03:31:08.932Z,48.58
2023-03-05T03:33:35.515Z,52.67
2023-03-05T03:36:03.500Z,48.40
2023-03-05T03:38:29.931Z,45.05
2023-03-05T03:40:56.416Z,45.90
2023-03-05T03:43:22.948Z,39.50
2023-03-05T03:45:49.427Z,43.88
2023-03-05T03:48:15.937Z,43.10
2023-03-05T03:50:43.651Z,42.40
2023-03-05T03:53:14.114Z,46.47
2023-03-05T03:55:42.723Z,46.90
2023-03-05T03:58:09.659Z,41.08
2023-03-05T04:00:36.300Z,40.65
2023-03-05T04:03:02.746Z,41.75
2023-03-05T04:05:29.170Z,40.92
2023-03-05T04:07:55.653Z,38.72
2023-03-05T04:10:22.088Z,36.97
2023-03-05T04:12:48.529Z,44.35
2023-03-05T04:15:15.118Z,43.45
2023-03-05T04:17:41.516Z,41.80
2023-03-05T04:20:10.410Z,41.92
2023-03-05T04:22:37.631Z,46.45
2023-03-05T04:25:06.541Z,36.63
2023-03-05T04:27:34.252Z,41.97
2023-03-05T04:30:01.063Z,44.10
2023-03-05T04:32:29.784Z,43.75
2023-03-05T04:34:57.043Z,51.40
2023-03-05T04:37:25.103Z,52.88
2023-03-05T04:39:52.731Z,51.92
2023-03-05T04:42:21.089Z,47.00
2023-03-05T04:44:49.352Z,41.00
2023-03-05T04:47:16.600Z,44.50
2023-03-05T04:49:43.026Z,44.80
2023-03-05T04:52:12.219Z,45.25
2023-03-05T04:54:39.013Z,40.58
2023-03-05T04:57:05.910Z,49.75
2023-03-05T04:59:32.385Z,44.88
2023-03-05T05:01:58.830Z,36.65
2023-03-05T05:04:25.265Z,33.95
2023-03-05T05:06:56.153Z,26.83
2023-03-05T05:09:23.555Z,27.67
2023-03-05T05:11:50.124Z,26.67
2023-03-05T05:14:16.597Z,33.20
2023-03-05T05:16:43.255Z,35.90
2023-03-05T05:19:09.728Z,35.88
2023-03-05T05:21:36.269Z,40.63
2023-03-05T05:24:02.745Z,33.88
2023-03-05T05:26:29.244Z,30.73
2023-03-05T05:28:55.692Z,39.58
2023-03-05T05:31:22.155Z,32.65
2023-03-05T05:33:49.931Z,26.05
2023-03-05T05:36:19.164Z,24.20
2023-03-05T05:38:46.000Z,25.17
2023-03-05T05:41:15.559Z,26.52
2023-03-05T05:43:42.512Z,23.30
2023-03-05T05:46:12.986Z,27.05
2023-03-05T05:48:40.012Z,29.02
2023-03-05T05:51:19.023Z,26.30
2023-03-05T05:53:46.039Z,23.85
2023-03-05T05:56:13.634Z,28.10
2023-03-05T05:58:41.275Z,26.98
2023-03-05T06:01:21.711Z,27.77
2023-03-05T06:03:48.287Z,35.15
2023-03-05T06:06:17.619Z,30.42
2023-03-05T06:08:44.738Z,32.22
2023-03-05T06:11:11.276Z,36.53
2023-03-05T06:13:38.633Z,41.70
2023-03-05T06:16:08.683Z,37.25
2023-03-05T06:18:35.634Z,35.08
2023-03-05T06:21:05.469Z,30.20
2023-03-05T06:23:32.368Z,32.35
2023-03-05T06:26:00.763Z,31.50
2023-03-05T06:28:27.323Z,33.33
2023-03-05T06:31:05.445Z,34.40
2023-03-05T06:33:32.565Z,41.95
2023-03-05T06:35:59.704Z,37.92
2023-03-05T06:38:26.407Z,40.40
2023-03-05T06:40:52.877Z,40.05
2023-03-05T06:43:19.596Z,47.13
2023-03-05T06:45:46.154Z,37.72
2023-03-05T06:48:12.846Z,33.13
2023-03-05T06:50:40.181Z,34.25
2023-03-05T06:53:06.659Z,36.05
2023-03-05T06:55:39.598Z,37.13
2023-03-05T06:58:06.772Z,37.80
2023-03-05T07:00:33.273Z,40.30
2023-03-05T07:02:59.765Z,36.53
2023-03-05T07:05:26.198Z,50.35
2023-03-05T07:07:52.629Z,55.17
2023-03-05T07:10:19.444Z,51.15
2023-03-05T07:12:45.900Z,58.50
2023-03-05T07:15:12.765Z,48.65
2023-03-05T07:17:39.197Z,51.65
2023-03-05T07:20:06.397Z,68.03
2023-03-05T07:22:32.898Z,56.58
2023-03-05T07:24:59.373Z,71.95
2023-03-05T07:27:25.818Z,68.57
2023-03-05T07:29:52.425Z,68.15
2023-03-05T07:32:19.074Z,73.45
2023-03-05T07:34:45.508Z,67.65
2023-03-05T07:37:13.245Z,75.25
2023-03-05T07:39:39.667Z,74.55
2023-03-05T07:42:06.293Z,78.03
2023-03-05T07:44:32.942Z,81.22
2023-03-05T07:46:59.491Z,75.38
2023-03-05T07:49:26.072Z,78.63
2023-03-05T07:51:52.564Z,76.22
2023-03-05T07:54:19.034Z,82.47
2023-03-05T07:56:45.540Z,114.57
2023-03-05T07:59:13.376Z,79.80
2023-03-05T08:01:40.283Z,82.25
2023-03-05T08:04:08.743Z,77.50
2023-03-05T08:06:35.217Z,77.68
2023-03-05T08:09:01.683Z,73.97
2023-03-05T08:11:28.756Z,71.95
2023-03-05T08:13:56.213Z,69.55
2023-03-05T08:16:25.804Z,70.80
2023-03-05T08:18:56.032Z,67.07
2023-03-05T08:21:29.381Z,77.40
2023-03-05T08:23:57.308Z,66.57
2023-03-05T08:26:26.148Z,67.40
2023-03-05T08:28:53.128Z,80.80
2023-03-05T08:31:22.041Z,60.67
2023-03-05T08:33:53.688Z,74.65
2023-03-05T08:36:20.331Z,72.90
2023-03-05T08:38:48.552Z,67.03
2023-03-05T08:41:17.290Z,73.90
2023-03-05T08:43:43.851Z,69.93
2023-03-05T08:46:12.665Z,61.80
2023-03-05T08:48:39.528Z,57.22
2023-03-05T08:51:17.612Z,58.05
2023-03-05T08:53:45.255Z,56.10
2023-03-05T08:56:12.523Z,68.82
2023-03-05T08:58:39.024Z,64.15
2023-03-05T09:01:06.087Z,60.10
2023-03-05T09:03:32.708Z,66.25
2023-03-05T09:06:04.919Z,64.57
2023-03-05T09:08:31.660Z,66.38
2023-03-05T09:10:58.217Z,66.53
2023-03-05T09:13:24.809Z,65.95
2023-03-05T09:15:59.562Z,71.85
2023-03-05T09:18:26.908Z,80.78
2023-03-05T09:20:53.914Z,66.15
2023-03-05T09:23:20.479Z,76.28
2023-03-05T09:25:47.014Z,68.55
2023-03-05T09:28:13.542Z,68.15
2023-03-05T09:30:40.017Z,64.30
2023-03-05T09:33:07.154Z,81.38
2023-03-05T09:35:37.239Z,74.93
2023-03-05T09:38:04.799Z,75.53
2023-03-05T09:40:45.666Z,67.63
2023-03-05T09:43:36.441Z,65.57
2023-03-05T09:46:33.174Z,61.10
2023-03-05T09:49:16.055Z,58.42
2023-03-05T09:51:46.712Z,59.47
2023-03-05T09:54:25.047Z,58.45
2023-03-05T09:56:56.949Z,62.50
2023-03-05T09:59:32.719Z,56.83
2023-03-05T10:02:23.224Z,59.20
2023-03-05T10:04:59.881Z,59.92
2023-03-05T10:07:30.932Z,58.55
2023-03-05T10:10:02.450Z,56.15
2023-03-05T10:12:43.057Z,57.38
2023-03-05T10:15:21.062Z,62.47
2023-03-05T10:18:00.598Z,55.88
2023-03-05T10:20:39.119Z,54.58
2023-03-05T10:23:15.959Z,57.35
2023-03-05T10:25:57.604Z,61.30
2023-03-05T10:28:46.533Z,56.50
2023-03-05T10:31:38.375Z,54.90
2023-03-05T10:34:54.543Z,54.63
2023-03-05T10:37:29.698Z,55.50
2023-03-05T10:40:09.685Z,49.80
2023-03-05T10:42:58.640Z,48.30
2023-03-05T10:45:32.108Z,50.75
2023-03-05T10:48:27.952Z,55.55
2023-03-05T10:51:01.426Z,42.90
2023-03-05T10:53:29.118Z,53.33
2023-03-05T10:55:58.263Z,45.83
2023-03-05T10:58:25.178Z,48.05
2023-03-05T11:01:25.578Z,43.83
2023-03-05T11:03:54.015Z,43.67
2023-03-05T11:06:34.525Z,50.03
2023-03-05T11:09:40.596Z,41.95
2023-03-05T11:12:09.846Z,52.50
2023-03-05T11:14:39.935Z,45.97
2023-03-05T11:17:28.384Z,39.13
2023-03-05T11:19:56.981Z,47.10
2023-03-05T11:22:25.177Z,45.70
2023-03-05T11:25:15.150Z,41.08
2023-03-05T11:28:01.864Z,46.08
2023-03-05T11:30:35.575Z,40.13
2023-03-05T11:33:14.478Z,36.28
2023-03-05T11:35:43.629Z,38.47
2023-03-05T11:38:24.990Z,44.53
2023-03-05T11:43:22.264Z,83.80
2023-03-05T11:45:52.411Z,54.80
2023-03-05T11:48:24.398Z,45.65
2023-03-05T11:51:01.412Z,48.17
2023-03-05T11:53:29.511Z,39.30
2023-03-05T11:56:03.807Z,44.97
2023-03-05T11:58:42.543Z,45.05
2023-03-05T12:01:23.488Z,45.58
2023-03-05T12:03:51.321Z,39.53
2023-03-05T12:06:28.858Z,42.92
2023-03-05T12:09:02.772Z,51.03
2023-03-05T12:11:32.150Z,46.40
2023-03-05T12:14:10.739Z,46.33
2023-03-05T12:16:46.419Z,45.03
2023-03-05T12:19:35.590Z,41.58
2023-03-05T12:22:03.796Z,40.03
2023-03-05T12:24:35.580Z,40.28
2023-03-05T12:27:05.164Z,43.13
2023-03-05T12:29:43.919Z,41.53
2023-03-05T12:32:22.763Z,52.60
2023-03-05T12:35:22.898Z,41.35
2023-03-05T12:37:52.501Z,39.70
2023-03-05T12:40:31.416Z,35.47
2023-03-05T12:42:59.384Z,40.20
2023-03-05T12:45:42.810Z,38.72
2023-03-05T12:48:12.558Z,45.53
2023-03-05T12:50:39.049Z,35.67
2023-03-05T12:53:18.806Z,40.60
2023-03-05T12:55:48.199Z,40.15
2023-03-05T12:58:21.376Z,38.17
2023-03-05T13:01:11.050Z,46.15
2023-03-05T13:03:47.330Z,34.83
2023-03-05T13:06:29.790Z,39.30
2023-03-05T13:09:21.674Z,37.90
2023-03-05T13:11:51.682Z,35.75
2023-03-05T13:14:36.038Z,29.88
2023-03-05T13:17:23.233Z,36.75
2023-03-05T13:19:50.028Z,30.73
2023-03-05T13:22:16.499Z,35.55
2023-03-05T13:24:43.002Z,38.47
2023-03-05T13:27:30.073Z,30.50
2023-03-05T13:29:56.555Z,28.00
2023-03-05T13:32:28.416Z,28.17
2023-03-05T13:34:57.958Z,31.15
2023-03-05T13:37:27.201Z,31.70
2023-03-05T13:39:57.685Z,27.42
2023-03-05T13:42:34.516Z,30.30
2023-03-05T13:45:05.860Z,36.47
2023-03-05T13:47:35.532Z,30.02
2023-03-05T13:50:08.011Z,30.88
2023-03-05T13:52:38.567Z,27.77
2023-03-05T13:55:13.522Z,24.17
2023-03-05T13:57:53.757Z,26.48
2023-03-05T14:00:28.769Z,31.67
2023-03-05T14:02:59.598Z,26.85
2023-03-05T14:05:35.298Z,32.15
2023-03-05T14:08:02.407Z,32.10
2023-03-05T14:10:30.946Z,29.40
2023-03-05T14:12:59.782Z,30.90
2023-03-05T14:15:34.208Z,25.98
2023-03-05T14:18:14.588Z,28.63
2023-03-05T14:21:03.590Z,26.73
2023-03-05T14:23:48.225Z,25.80
2023-03-05T14:26:24.008Z,26.35
2023-03-05T14:28:56.459Z,25.67
2023-03-05T14:31:24.162Z,32.75
2023-03-05T14:33:52.097Z,31.67
2023-03-05T14:36:24.549Z,32.10
2023-03-05T14:38:53.400Z,27.98
2023-03-05T14:41:38.880Z,26.13
2023-03-05T14:44:17.529Z,29.52
2023-03-05T14:46:49.086Z,28.25
2023-03-05T14:49:16.145Z,27.95
2023-03-05T14:51:45.374Z,24.45
2023-03-05T14:54:20.847Z,28.25
2023-03-05T14:56:48.726Z,30.88
2023-03-05T14:59:17.268Z,30.77
2023-03-05T15:01:43.854Z,29.25
2023-03-05T15:04:10.671Z,29.13
2023-03-05T15:06:40.268Z,26.00
2023-03-05T15:09:08.002Z,25.27
2023-03-05T15:11:35.137Z,37.17
2023-03-05T15:14:01.624Z,27.20
2023-03-05T15:16:28.288Z,29.90
2023-03-05T15:18:54.765Z,30.20
2023-03-05T15:21:21.213Z,30.50
2023-03-05T15:23:47.755Z,28.50
2023-03-05T15:26:15.096Z,35.08
2023-03-05T15:28:42.766Z,28.65
2023-03-05T15:31:09.997Z,29.58
2023-03-05T15:33:36.534Z,26.08
2023-03-05T15:36:03.601Z,31.60
2023-03-05T15:38:30.053Z,33.63
2023-03-05T15:40:56.605Z,33.83
2023-03-05T15:43:23.215Z,28.17
2023-03-05T15:45:49.654Z,33.55
2023-03-05T15:48:16.277Z,29.00
2023-03-05T15:50:45.849Z,28.13
2023-03-05T15:53:16.120Z,29.00
2023-03-05T15:55:43.815Z,29.98
2023-03-05T15:58:14.871Z,29.27
2023-03-05T16:00:41.461Z,27.38
2023-03-05T16:03:08.035Z,26.50
2023-03-05T16:05:36.480Z,29.15
2023-03-05T16:08:03.314Z,27.98
2023-03-05T16:10:30.938Z,42.60
2023-03-05T16:13:20.564Z,30.35
2023-03-05T16:15:52.782Z,30.60
2023-03-05T16:18:20.192Z,29.92
2023-03-05T16:20:47.664Z,31.20
2023-03-05T16:23:14.550Z,37.05
2023-03-05T16:25:41.041Z,35.10
2023-03-05T16:28:07.468Z,29.40
2023-03-05T16:30:33.921Z,28.88
2023-03-05T16:33:00.724Z,30.00
2023-03-05T16:35:27.276Z,29.15
2023-03-05T16:37:53.865Z,37.67
2023-03-05T16:40:20.383Z,35.25
2023-03-05T16:42:46.821Z,37.05
2023-03-05T16:45:13.548Z,39.47
2023-03-05T16:47:40.595Z,40.90
2023-03-05T16:50:08.945Z,38.40
2023-03-05T16:52:36.132Z,44.60
2023-03-05T16:55:04.358Z,40.13
2023-03-05T16:57:30.866Z,51.10
2023-03-05T16:59:58.416Z,36.55
2023-03-05T17:02:24.912Z,44.83
2023-03-05T17:04:51.433Z,46.45
2023-03-05T17:07:18.637Z,39.10
2023-03-05T17:09:46.423Z,41.95
2023-03-05T17:12:12.932Z,38.25
2023-03-05T17:14:40.031Z,41.53
2023-03-05T17:17:06.654Z,38.88
2023-03-05T17:19:33.308Z,42.70
2023-03-05T17:21:59.938Z,46.75
2023-03-05T17:24:26.862Z,36.78
2023-03-05T17:26:53.476Z,39.70
2023-03-05T17:29:21.616Z,39.97
2023-03-05T17:31:50.838Z,41.58
2023-03-05T17:34:18.408Z,45.10
2023-03-05T17:36:50.392Z,42.35
2023-03-05T17:39:20.762Z,47.30
2023-03-05T17:41:47.480Z,47.53
2023-03-05T17:44:14.426Z,43.83
2023-03-05T17:46:41.118Z,63.22
2023-03-05T17:49:07.603Z,45.15
2023-03-05T17:51:34.206Z,53.45
2023-03-05T17:54:00.891Z,59.22
2023-03-05T17:56:27.517Z,65.65
2023-03-05T17:58:54.552Z,59.35
2023-03-05T18:01:30.711Z,63.72
2023-03-05T18:03:57.456Z,59.67
2023-03-05T18:06:25.108Z,54.83
2023-03-05T18:08:51.720Z,50.90
2023-03-05T18:11:18.691Z,51.58
2023-03-05T18:13:45.442Z,65.53
2023-03-05T18:16:14.355Z,63.60
2023-03-05T18:18:41.723Z,47.63
2023-03-05T18:21:08.566Z,45.05
2023-03-05T18:23:36.486Z,49.95
2023-03-05T18:26:03.173Z,53.90
2023-03-05T18:28:29.853Z,49.25
2023-03-05T18:30:56.551Z,43.10
2023-03-05T18:33:24.990Z,43.33
2023-03-05T18:35:52.560Z,42.05
2023-03-05T18:38:21.322Z,45.50
2023-03-05T18:40:51.162Z,46.47
2023-03-05T18:43:20.650Z,45.00
2023-03-05T18:45:52.763Z,45.15
2023-03-05T18:48:20.178Z,53.42
2023-03-05T18:50:50.454Z,48.58
2023-03-05T18:53:17.283Z,56.28
2023-03-05T18:55:44.889Z,52.05
2023-03-05T18:58:15.520Z,50.58
2023-03-05T19:00:42.932Z,45.47
2023-03-05T19:03:11.661Z,54.25
2023-03-05T19:05:39.145Z,52.65
2023-03-05T19:08:07.711Z,44.08
2023-03-05T19:10:34.657Z,74.40
2023-03-05T19:13:48.999Z,98.70
2023-03-05T19:16:23.239Z,82.93
2023-03-05T19:19:20.520Z,68.15
2023-03-05T19:21:49.953Z,57.15
2023-03-05T19:24:17.305Z,68.43
2023-03-05T19:26:44.235Z,67.38
2023-03-05T19:29:11.912Z,65.68
2023-03-05T19:31:38.542Z,63.75
2023-03-05T19:34:05.881Z,60.92
2023-03-05T19:36:34.379Z,58.53
2023-03-05T19:39:04.295Z,54.60
2023-03-05T19:41:30.997Z,56.65
2023-03-05T19:43:58.158Z,55.90
2023-03-05T19:46:25.291Z,59.85
2023-03-05T19:48:52.269Z,64.25
2023-03-05T19:51:21.772Z,57.05
2023-03-05T19:53:49.268Z,64.55
2023-03-05T19:56:17.250Z,66.85
2023-03-05T19:58:45.836Z,58.03
2023-03-05T20:01:23.574Z,62.00
2023-03-05T20:04:24.641Z,63.67
2023-03-05T20:06:51.717Z,63.03
2023-03-05T20:09:18.671Z,51.25
2023-03-05T20:11:46.235Z,48.70
2023-03-05T20:14:16.125Z,52.03
2023-03-05T20:16:43.505Z,58.53
2023-03-05T20:19:16.271Z,52.90
2023-03-05T20:21:43.563Z,56.65
2023-03-05T20:24:16.173Z,48.72
2023-03-05T20:26:44.813Z,50.60
2023-03-05T20:29:14.878Z,53.67
2023-03-05T20:31:43.674Z,48.97
2023-03-05T20:34:13.736Z,61.97
2023-03-05T20:36:40.768Z,55.08
2023-03-05T20:39:08.425Z,50.55
2023-03-05T20:41:38.222Z,55.88
2023-03-05T20:44:05.907Z,45.92
2023-03-05T20:46:35.941Z,44.72
2023-03-05T20:49:04.490Z,49.72
2023-03-05T20:51:35.027Z,50.42
2023-03-05T20:54:11.470Z,53.27
2023-03-05T20:56:39.122Z,58.05
2023-03-05T20:59:11.021Z,49.70
2023-03-05T21:01:39.865Z,46.25
2023-03-05T21:04:07.603Z,47.85
2023-03-05T21:06:35.203Z,51.95
2023-03-05T21:09:02.446Z,49.20
2023-03-05T21:11:32.075Z,49.72
2023-03-05T21:13:59.263Z,52.25
2023-03-05T21:16:27.387Z,55.50
2023-03-05T21:18:56.122Z,51.90
2023-03-05T21:21:23.082Z,48.03
2023-03-05T21:23:49.979Z,55.97
2023-03-05T21:26:17.950Z,64.78
2023-03-05T21:28:44.600Z,54.00
2023-03-05T21:31:16.569Z,56.85
2023-03-05T21:33:43.100Z,53.55
2023-03-05T21:36:10.550Z,52.28
2023-03-05T21:38:37.208Z,56.80
2023-03-05T21:41:06.998Z,54.85
2023-03-05T21:43:34.000Z,53.63
2023-03-05T21:46:03.025Z,48.30
2023-03-05T21:48:30.181Z,56.25
2023-03-05T21:50:58.361Z,57.03
2023-03-05T21:53:25.162Z,57.35
2023-03-05T21:56:25.412Z,51.85
2023-03-05T21:58:53.030Z,55.72
2023-03-05T22:01:21.207Z,52.33
2023-03-05T22:03:48.823Z,56.40
2023-03-05T22:06:17.268Z,62.22
2023-03-05T22:08:43.790Z,59.22
2023-03-05T22:11:11.333Z,57.88
2023-03-05T22:13:38.387Z,54.72
2023-03-05T22:16:05.946Z,52.15
2023-03-05T22:18:33.182Z,54.80
2023-03-05T22:21:00.674Z,54.47
2023-03-05T22:23:30.619Z,61.53
2023-03-05T22:26:01.469Z,54.60
2023-03-05T22:28:28.817Z,60.00
2023-03-05T22:30:55.976Z,59.38
2023-03-05T22:33:23.293Z,53.72
2023-03-05T22:35:50.492Z,55.53
2023-03-05T22:38:17.735Z,51.97
2023-03-05T22:40:45.709Z,59.17
2023-03-05T22:43:13.024Z,52.30
2023-03-05T22:45:40.005Z,52.05
2023-03-05T22:48:09.701Z,49.58
2023-03-05T22:50:40.339Z,49.17
2023-03-05T22:53:06.892Z,50.87
2023-03-05T22:55:33.313Z,53.45
2023-03-05T22:57:59.785Z,51.67
2023-03-05T23:00:26.751Z,44.55
2023-03-05T23:02:53.940Z,53.60
2023-03-05T23:05:21.453Z,58.80
2023-03-05T23:07:48.043Z,54.25
2023-03-05T23:10:20.545Z,55.72
2023-03-05T23:12:50.168Z,51.75
2023-03-05T23:15:37.304Z,45.40
2023-03-05T23:18:06.234Z,57.60
2023-03-05T23:20:35.137Z,55.75
2023-03-05T23:23:03.287Z,52.30
2023-03-05T23:25:32.789Z,53.67
2023-03-05T23:28:00.238Z,50.17
2023-03-05T23:30:28.891Z,53.33
2023-03-05T23:32:58.785Z,52.97
2023-03-05T23:35:28.045Z,58.33
2023-03-05T23:37:55.976Z,52.72
2023-03-05T23:40:28.282Z,55.38
2023-03-05T23:42:54.804Z,55.25
2023-03-05T23:45:22.464Z,68.53
2023-03-05T23:47:49.716Z,53.33
2023-03-05T23:50:18.766Z,59.72
2023-03-05T23:52:45.570Z,57.63
2023-03-05T23:55:26.955Z,51.88
2023-03-05T23:57:54.138Z,52.13
